sensor_id;sensor_type;location;lat;lon;timestamp;P1;durP1;ratioP1;P2;durP2;ratioP2
8159;SDS011;27404;52.398;9.646;2023-03-12T00:01:09;4.60;;;2.13;;
8159;SDS011;27404;52.398;9.646;2023-03-12T00:03:42;6.77;;;2.63;;
8159;SDS011;27404;52.398;9.646;2023-03-12T00:06:08;4.47;;;2.57;;
8159;SDS011;27404;52.398;9.646;2023-03-12T00:08:34;5.23;;;2.60;;
8159;SDS011;27404;52.398;9.646;2023-03-12T00:10:59;4.43;;;2.43;;
8159;SDS011;27404;52.398;9.646;2023-03-12T00:13:30;5.63;;;2.73;;
8159;SDS011;27404;52.398;9.646;2023-03-12T00:15:55;4.80;;;2.23;;
8159;SDS011;27404;52.398;9.646;2023-03-12T00:18:21;8.80;;;2.57;;
8159;SDS011;27404;52.398;9.646;2023-03-12T00:20:53;7.63;;;2.40;;
8159;SDS011;27404;52.398;9.646;2023-03-12T00:23:19;5.00;;;2.60;;
8159;SDS011;27404;52.398;9.646;2023-03-12T00:25:45;4.90;;;2.70;;
8159;SDS011;27404;52.398;9.646;2023-03-12T00:28:10;7.07;;;2.77;;
8159;SDS011;27404;52.398;9.646;2023-03-12T00:30:36;5.53;;;2.90;;
8159;SDS011;27404;52.398;9.646;2023-03-12T00:33:01;6.80;;;2.63;;
8159;SDS011;27404;52.398;9.646;2023-03-12T00:35:26;5.37;;;2.60;;
8159;SDS011;27404;52.398;9.646;2023-03-12T00:37:52;5.77;;;2.60;;
8159;SDS011;27404;52.398;9.646;2023-03-12T00:40:17;4.47;;;2.40;;
8159;SDS011;27404;52.398;9.646;2023-03-12T00:42:43;7.97;;;2.57;;
8159;SDS011;27404;52.398;9.646;2023-03-12T00:45:08;6.87;;;2.70;;
8159;SDS011;27404;52.398;9.646;2023-03-12T00:47:34;5.67;;;3.00;;
8159;SDS011;27404;52.398;9.646;2023-03-12T00:50:00;7.37;;;2.63;;
8159;SDS011;27404;52.398;9.646;2023-03-12T00:52:25;8.23;;;2.83;;
8159;SDS011;27404;52.398;9.646;2023-03-12T00:54:51;5.00;;;2.70;;
8159;SDS011;27404;52.398;9.646;2023-03-12T00:57:16;5.07;;;2.57;;
8159;SDS011;27404;52.398;9.646;2023-03-12T00:59:42;5.97;;;2.90;;
8159;SDS011;27404;52.398;9.646;2023-03-12T01:02:07;6.07;;;2.93;;
8159;SDS011;27404;52.398;9.646;2023-03-12T01:04:33;5.30;;;3.13;;
8159;SDS011;27404;52.398;9.646;2023-03-12T01:06:58;6.20;;;2.80;;
8159;SDS011;27404;52.398;9.646;2023-03-12T01:09:24;7.60;;;3.00;;
8159;SDS011;27404;52.398;9.646;2023-03-12T01:11:49;5.20;;;2.83;;
8159;SDS011;27404;52.398;9.646;2023-03-12T01:14:15;5.53;;;2.60;;
8159;SDS011;27404;52.398;9.646;2023-03-12T01:16:40;5.00;;;2.70;;
8159;SDS011;27404;52.398;9.646;2023-03-12T01:19:05;4.20;;;2.27;;
8159;SDS011;27404;52.398;9.646;2023-03-12T01:21:31;4.00;;;2.30;;
8159;SDS011;27404;52.398;9.646;2023-03-12T01:23:57;5.37;;;2.30;;
8159;SDS011;27404;52.398;9.646;2023-03-12T01:26:23;4.20;;;2.43;;
8159;SDS011;27404;52.398;9.646;2023-03-12T01:28:49;4.93;;;2.30;;
8159;SDS011;27404;52.398;9.646;2023-03-12T01:31:15;8.00;;;2.67;;
8159;SDS011;27404;52.398;9.646;2023-03-12T01:33:43;4.70;;;2.57;;
8159;SDS011;27404;52.398;9.646;2023-03-12T01:36:19;6.50;;;2.70;;
8159;SDS011;27404;52.398;9.646;2023-03-12T01:38:50;5.10;;;2.87;;
8159;SDS011;27404;52.398;9.646;2023-03-12T01:41:17;3.80;;;2.40;;
8159;SDS011;27404;52.398;9.646;2023-03-12T01:43:43;3.80;;;2.20;;
8159;SDS011;27404;52.398;9.646;2023-03-12T01:48:46;6.37;;;2.40;;
8159;SDS011;27404;52.398;9.646;2023-03-12T01:51:14;3.90;;;2.10;;
8159;SDS011;27404;52.398;9.646;2023-03-12T01:53:42;5.83;;;2.10;;
8159;SDS011;27404;52.398;9.646;2023-03-12T01:56:11;3.60;;;2.30;;
8159;SDS011;27404;52.398;9.646;2023-03-12T01:58:38;3.40;;;1.87;;
8159;SDS011;27404;52.398;9.646;2023-03-12T02:01:07;3.33;;;2.07;;
8159;SDS011;27404;52.398;9.646;2023-03-12T02:03:32;4.07;;;1.70;;
8159;SDS011;27404;52.398;9.646;2023-03-12T02:06:01;5.00;;;1.87;;
8159;SDS011;27404;52.398;9.646;2023-03-12T02:08:30;4.37;;;1.73;;
8159;SDS011;27404;52.398;9.646;2023-03-12T02:11:01;4.23;;;1.90;;
8159;SDS011;27404;52.398;9.646;2023-03-12T02:13:27;3.80;;;1.90;;
8159;SDS011;27404;52.398;9.646;2023-03-12T02:15:52;5.87;;;1.70;;
8159;SDS011;27404;52.398;9.646;2023-03-12T02:18:18;5.13;;;2.10;;
8159;SDS011;27404;52.398;9.646;2023-03-12T02:20:51;4.27;;;2.33;;
8159;SDS011;27404;52.398;9.646;2023-03-12T02:23:55;3.70;;;2.17;;
8159;SDS011;27404;52.398;9.646;2023-03-12T02:26:29;4.60;;;2.40;;
8159;SDS011;27404;52.398;9.646;2023-03-12T02:28:55;3.10;;;1.70;;
8159;SDS011;27404;52.398;9.646;2023-03-12T02:31:25;6.77;;;2.07;;
8159;SDS011;27404;52.398;9.646;2023-03-12T02:33:56;4.73;;;2.13;;
8159;SDS011;27404;52.398;9.646;2023-03-12T02:36:22;4.57;;;1.80;;
8159;SDS011;27404;52.398;9.646;2023-03-12T02:38:49;3.27;;;2.17;;
8159;SDS011;27404;52.398;9.646;2023-03-12T02:41:18;5.37;;;2.30;;
8159;SDS011;27404;52.398;9.646;2023-03-12T02:43:51;6.33;;;1.90;;
8159;SDS011;27404;52.398;9.646;2023-03-12T02:46:34;7.10;;;1.77;;
8159;SDS011;27404;52.398;9.646;2023-03-12T02:49:02;5.77;;;2.33;;
8159;SDS011;27404;52.398;9.646;2023-03-12T02:51:28;2.90;;;1.53;;
8159;SDS011;27404;52.398;9.646;2023-03-12T02:53:53;4.20;;;2.27;;
8159;SDS011;27404;52.398;9.646;2023-03-12T02:56:20;5.27;;;2.10;;
8159;SDS011;27404;52.398;9.646;2023-03-12T02:58:47;5.77;;;2.03;;
8159;SDS011;27404;52.398;9.646;2023-03-12T03:01:12;4.97;;;1.90;;
8159;SDS011;27404;52.398;9.646;2023-03-12T03:03:38;4.63;;;2.07;;
8159;SDS011;27404;52.398;9.646;2023-03-12T03:06:03;5.13;;;2.33;;
8159;SDS011;27404;52.398;9.646;2023-03-12T03:08:29;7.17;;;2.00;;
8159;SDS011;27404;52.398;9.646;2023-03-12T03:10:54;4.50;;;2.37;;
8159;SDS011;27404;52.398;9.646;2023-03-12T03:13:20;7.07;;;2.20;;
8159;SDS011;27404;52.398;9.646;2023-03-12T03:15:45;5.77;;;2.30;;
8159;SDS011;27404;52.398;9.646;2023-03-12T03:18:11;3.33;;;1.83;;
8159;SDS011;27404;52.398;9.646;2023-03-12T03:20:36;4.17;;;2.00;;
8159;SDS011;27404;52.398;9.646;2023-03-12T03:23:02;3.23;;;1.90;;
8159;SDS011;27404;52.398;9.646;2023-03-12T03:25:28;7.30;;;2.70;;
8159;SDS011;27404;52.398;9.646;2023-03-12T03:27:54;3.53;;;1.80;;
8159;SDS011;27404;52.398;9.646;2023-03-12T03:30:19;3.73;;;2.00;;
8159;SDS011;27404;52.398;9.646;2023-03-12T03:32:46;6.00;;;2.40;;
8159;SDS011;27404;52.398;9.646;2023-03-12T03:35:12;5.00;;;2.23;;
8159;SDS011;27404;52.398;9.646;2023-03-12T03:37:38;6.57;;;2.20;;
8159;SDS011;27404;52.398;9.646;2023-03-12T03:40:03;3.17;;;1.97;;
8159;SDS011;27404;52.398;9.646;2023-03-12T03:42:29;4.37;;;2.10;;
8159;SDS011;27404;52.398;9.646;2023-03-12T03:44:55;9.27;;;2.40;;
8159;SDS011;27404;52.398;9.646;2023-03-12T03:47:20;5.70;;;2.53;;
8159;SDS011;27404;52.398;9.646;2023-03-12T03:49:46;3.87;;;2.13;;
8159;SDS011;27404;52.398;9.646;2023-03-12T03:52:11;4.17;;;2.43;;
8159;SDS011;27404;52.398;9.646;2023-03-12T03:54:37;6.93;;;2.70;;
8159;SDS011;27404;52.398;9.646;2023-03-12T03:57:02;5.67;;;2.00;;
8159;SDS011;27404;52.398;9.646;2023-03-12T03:59:28;5.43;;;2.57;;
8159;SDS011;27404;52.398;9.646;2023-03-12T04:01:53;4.70;;;2.60;;
8159;SDS011;27404;52.398;9.646;2023-03-12T04:04:19;4.37;;;2.10;;
8159;SDS011;27404;52.398;9.646;2023-03-12T04:06:45;7.67;;;2.90;;
8159;SDS011;27404;52.398;9.646;2023-03-12T04:09:10;5.20;;;2.20;;
8159;SDS011;27404;52.398;9.646;2023-03-12T04:11:36;4.77;;;2.50;;
8159;SDS011;27404;52.398;9.646;2023-03-12T04:14:02;3.87;;;2.27;;
8159;SDS011;27404;52.398;9.646;2023-03-12T04:16:27;3.87;;;2.00;;
8159;SDS011;27404;52.398;9.646;2023-03-12T04:18:53;5.33;;;2.13;;
8159;SDS011;27404;52.398;9.646;2023-03-12T04:21:18;6.40;;;2.20;;
8159;SDS011;27404;52.398;9.646;2023-03-12T04:23:44;4.77;;;2.30;;
8159;SDS011;27404;52.398;9.646;2023-03-12T04:26:10;3.80;;;2.50;;
8159;SDS011;27404;52.398;9.646;2023-03-12T04:28:35;5.50;;;2.53;;
8159;SDS011;27404;52.398;9.646;2023-03-12T04:31:03;8.17;;;2.43;;
8159;SDS011;27404;52.398;9.646;2023-03-12T04:33:31;5.60;;;2.40;;
8159;SDS011;27404;52.398;9.646;2023-03-12T04:35:59;4.13;;;2.50;;
8159;SDS011;27404;52.398;9.646;2023-03-12T04:38:25;6.00;;;2.67;;
8159;SDS011;27404;52.398;9.646;2023-03-12T04:41:00;5.70;;;2.63;;
8159;SDS011;27404;52.398;9.646;2023-03-12T04:43:26;5.37;;;2.27;;
8159;SDS011;27404;52.398;9.646;2023-03-12T04:45:53;5.93;;;2.70;;
8159;SDS011;27404;52.398;9.646;2023-03-12T04:48:18;5.70;;;2.50;;
8159;SDS011;27404;52.398;9.646;2023-03-12T04:50:44;7.53;;;2.47;;
8159;SDS011;27404;52.398;9.646;2023-03-12T04:53:09;4.23;;;2.50;;
8159;SDS011;27404;52.398;9.646;2023-03-12T04:55:35;4.60;;;2.47;;
8159;SDS011;27404;52.398;9.646;2023-03-12T04:58:00;6.53;;;2.40;;
8159;SDS011;27404;52.398;9.646;2023-03-12T05:00:25;6.37;;;2.13;;
8159;SDS011;27404;52.398;9.646;2023-03-12T05:02:51;4.23;;;2.30;;
8159;SDS011;27404;52.398;9.646;2023-03-12T05:05:17;4.03;;;2.17;;
8159;SDS011;27404;52.398;9.646;2023-03-12T05:07:43;6.33;;;2.70;;
8159;SDS011;27404;52.398;9.646;2023-03-12T05:10:08;4.57;;;2.70;;
8159;SDS011;27404;52.398;9.646;2023-03-12T05:12:34;4.33;;;2.43;;
8159;SDS011;27404;52.398;9.646;2023-03-12T05:15:00;6.93;;;2.77;;
8159;SDS011;27404;52.398;9.646;2023-03-12T05:17:25;5.07;;;2.87;;
8159;SDS011;27404;52.398;9.646;2023-03-12T05:19:50;7.23;;;2.87;;
8159;SDS011;27404;52.398;9.646;2023-03-12T05:22:16;6.17;;;2.87;;
8159;SDS011;27404;52.398;9.646;2023-03-12T05:24:42;8.00;;;2.77;;
8159;SDS011;27404;52.398;9.646;2023-03-12T05:27:07;5.17;;;3.10;;
8159;SDS011;27404;52.398;9.646;2023-03-12T05:29:33;6.60;;;3.03;;
8159;SDS011;27404;52.398;9.646;2023-03-12T05:32:02;8.67;;;3.27;;
8159;SDS011;27404;52.398;9.646;2023-03-12T05:34:29;8.57;;;3.00;;
8159;SDS011;27404;52.398;9.646;2023-03-12T05:36:55;5.30;;;2.97;;
8159;SDS011;27404;52.398;9.646;2023-03-12T05:39:22;6.83;;;3.20;;
8159;SDS011;27404;52.398;9.646;2023-03-12T05:41:48;5.00;;;3.23;;
8159;SDS011;27404;52.398;9.646;2023-03-12T05:44:13;8.40;;;2.87;;
8159;SDS011;27404;52.398;9.646;2023-03-12T05:46:40;4.23;;;2.87;;
8159;SDS011;27404;52.398;9.646;2023-03-12T05:49:07;5.20;;;3.20;;
8159;SDS011;27404;52.398;9.646;2023-03-12T05:51:33;8.07;;;3.97;;
8159;SDS011;27404;52.398;9.646;2023-03-12T05:53:59;4.70;;;2.90;;
8159;SDS011;27404;52.398;9.646;2023-03-12T05:56:24;4.73;;;3.00;;
8159;SDS011;27404;52.398;9.646;2023-03-12T05:58:50;4.63;;;3.03;;
8159;SDS011;27404;52.398;9.646;2023-03-12T06:01:17;7.60;;;2.93;;
8159;SDS011;27404;52.398;9.646;2023-03-12T06:03:53;6.23;;;2.63;;
8159;SDS011;27404;52.398;9.646;2023-03-12T06:06:19;5.57;;;2.67;;
8159;SDS011;27404;52.398;9.646;2023-03-12T06:08:44;4.47;;;2.93;;
8159;SDS011;27404;52.398;9.646;2023-03-12T06:11:11;3.97;;;2.60;;
8159;SDS011;27404;52.398;9.646;2023-03-12T06:13:37;5.57;;;2.90;;
8159;SDS011;27404;52.398;9.646;2023-03-12T06:16:03;6.93;;;2.77;;
8159;SDS011;27404;52.398;9.646;2023-03-12T06:18:31;4.40;;;2.97;;
8159;SDS011;27404;52.398;9.646;2023-03-12T06:23:56;7.60;;;2.60;;
8159;SDS011;27404;52.398;9.646;2023-03-12T06:26:22;5.50;;;2.90;;
8159;SDS011;27404;52.398;9.646;2023-03-12T06:28:48;4.13;;;2.87;;
8159;SDS011;27404;52.398;9.646;2023-03-12T06:31:15;4.43;;;2.70;;
8159;SDS011;27404;52.398;9.646;2023-03-12T06:33:41;3.97;;;2.60;;
8159;SDS011;27404;52.398;9.646;2023-03-12T06:36:07;6.70;;;3.87;;
8159;SDS011;27404;52.398;9.646;2023-03-12T06:38:34;6.13;;;2.37;;
8159;SDS011;27404;52.398;9.646;2023-03-12T06:41:07;6.80;;;2.67;;
8159;SDS011;27404;52.398;9.646;2023-03-12T06:43:35;4.50;;;2.63;;
8159;SDS011;27404;52.398;9.646;2023-03-12T06:46:01;8.40;;;2.90;;
8159;SDS011;27404;52.398;9.646;2023-03-12T06:48:28;4.67;;;2.80;;
8159;SDS011;27404;52.398;9.646;2023-03-12T06:50:57;4.30;;;2.33;;
8159;SDS011;27404;52.398;9.646;2023-03-12T06:53:24;5.77;;;3.00;;
8159;SDS011;27404;52.398;9.646;2023-03-12T06:55:50;6.07;;;2.60;;
8159;SDS011;27404;52.398;9.646;2023-03-12T06:58:15;5.93;;;2.80;;
8159;SDS011;27404;52.398;9.646;2023-03-12T07:00:41;6.43;;;2.93;;
8159;SDS011;27404;52.398;9.646;2023-03-12T07:03:07;8.93;;;4.33;;
8159;SDS011;27404;52.398;9.646;2023-03-12T07:05:32;7.07;;;2.90;;
8159;SDS011;27404;52.398;9.646;2023-03-12T07:07:58;6.77;;;3.60;;
8159;SDS011;27404;52.398;9.646;2023-03-12T07:10:23;6.30;;;3.17;;
8159;SDS011;27404;52.398;9.646;2023-03-12T07:12:52;8.00;;;2.93;;
8159;SDS011;27404;52.398;9.646;2023-03-12T07:15:17;5.13;;;2.67;;
8159;SDS011;27404;52.398;9.646;2023-03-12T07:17:43;5.77;;;2.97;;
8159;SDS011;27404;52.398;9.646;2023-03-12T07:20:08;6.90;;;3.00;;
8159;SDS011;27404;52.398;9.646;2023-03-12T07:22:35;4.17;;;2.93;;
8159;SDS011;27404;52.398;9.646;2023-03-12T07:25:00;7.30;;;3.03;;
8159;SDS011;27404;52.398;9.646;2023-03-12T07:27:25;5.90;;;2.90;;
8159;SDS011;27404;52.398;9.646;2023-03-12T07:29:51;7.00;;;2.90;;
8159;SDS011;27404;52.398;9.646;2023-03-12T07:32:16;5.67;;;3.00;;
8159;SDS011;27404;52.398;9.646;2023-03-12T07:34:42;3.73;;;2.50;;
8159;SDS011;27404;52.398;9.646;2023-03-12T07:37:08;6.50;;;3.43;;
8159;SDS011;27404;52.398;9.646;2023-03-12T07:39:33;4.83;;;3.10;;
8159;SDS011;27404;52.398;9.646;2023-03-12T07:41:58;6.33;;;2.93;;
8159;SDS011;27404;52.398;9.646;2023-03-12T07:44:24;12.40;;;3.00;;
8159;SDS011;27404;52.398;9.646;2023-03-12T07:46:52;4.20;;;2.70;;
8159;SDS011;27404;52.398;9.646;2023-03-12T07:49:18;7.03;;;3.50;;
8159;SDS011;27404;52.398;9.646;2023-03-12T07:51:44;7.43;;;3.00;;
8159;SDS011;27404;52.398;9.646;2023-03-12T07:54:10;5.03;;;2.83;;
8159;SDS011;27404;52.398;9.646;2023-03-12T07:56:35;6.53;;;2.77;;
8159;SDS011;27404;52.398;9.646;2023-03-12T07:59:01;5.00;;;3.30;;
8159;SDS011;27404;52.398;9.646;2023-03-12T08:01:26;5.20;;;3.50;;
8159;SDS011;27404;52.398;9.646;2023-03-12T08:03:56;6.03;;;3.13;;
8159;SDS011;27404;52.398;9.646;2023-03-12T08:06:23;5.17;;;2.80;;
8159;SDS011;27404;52.398;9.646;2023-03-12T08:08:49;5.37;;;3.10;;
8159;SDS011;27404;52.398;9.646;2023-03-12T08:11:15;8.00;;;3.00;;
8159;SDS011;27404;52.398;9.646;2023-03-12T08:13:41;5.97;;;2.50;;
8159;SDS011;27404;52.398;9.646;2023-03-12T08:16:06;9.60;;;2.83;;
8159;SDS011;27404;52.398;9.646;2023-03-12T08:18:32;4.43;;;2.70;;
8159;SDS011;27404;52.398;9.646;2023-03-12T08:20:57;4.87;;;2.53;;
8159;SDS011;27404;52.398;9.646;2023-03-12T08:23:23;4.37;;;2.33;;
8159;SDS011;27404;52.398;9.646;2023-03-12T08:25:49;5.43;;;2.40;;
8159;SDS011;27404;52.398;9.646;2023-03-12T08:28:15;6.23;;;2.40;;
8159;SDS011;27404;52.398;9.646;2023-03-12T08:30:45;5.00;;;2.10;;
8159;SDS011;27404;52.398;9.646;2023-03-12T08:33:12;4.07;;;2.10;;
8159;SDS011;27404;52.398;9.646;2023-03-12T08:35:38;6.10;;;2.70;;
8159;SDS011;27404;52.398;9.646;2023-03-12T08:38:03;6.03;;;2.43;;
8159;SDS011;27404;52.398;9.646;2023-03-12T08:40:29;5.40;;;2.63;;
8159;SDS011;27404;52.398;9.646;2023-03-12T08:42:54;4.23;;;2.40;;
8159;SDS011;27404;52.398;9.646;2023-03-12T08:45:21;9.57;;;2.60;;
8159;SDS011;27404;52.398;9.646;2023-03-12T08:47:46;5.03;;;2.40;;
8159;SDS011;27404;52.398;9.646;2023-03-12T08:50:12;4.90;;;2.10;;
8159;SDS011;27404;52.398;9.646;2023-03-12T08:52:40;6.50;;;2.30;;
8159;SDS011;27404;52.398;9.646;2023-03-12T08:55:06;7.17;;;2.30;;
8159;SDS011;27404;52.398;9.646;2023-03-12T08:57:32;7.37;;;2.47;;
8159;SDS011;27404;52.398;9.646;2023-03-12T08:59:58;4.30;;;2.27;;
8159;SDS011;27404;52.398;9.646;2023-03-12T09:02:23;7.10;;;2.00;;
8159;SDS011;27404;52.398;9.646;2023-03-12T09:04:49;3.97;;;2.03;;
8159;SDS011;27404;52.398;9.646;2023-03-12T09:07:15;5.90;;;2.10;;
8159;SDS011;27404;52.398;9.646;2023-03-12T09:09:42;4.40;;;2.20;;
8159;SDS011;27404;52.398;9.646;2023-03-12T09:12:08;6.27;;;2.00;;
8159;SDS011;27404;52.398;9.646;2023-03-12T09:14:34;5.33;;;2.27;;
8159;SDS011;27404;52.398;9.646;2023-03-12T09:17:00;4.20;;;1.73;;
8159;SDS011;27404;52.398;9.646;2023-03-12T09:19:26;8.53;;;2.10;;
8159;SDS011;27404;52.398;9.646;2023-03-12T09:21:51;5.60;;;2.13;;
8159;SDS011;27404;52.398;9.646;2023-03-12T09:24:17;3.70;;;1.70;;
8159;SDS011;27404;52.398;9.646;2023-03-12T09:26:42;7.30;;;1.73;;
8159;SDS011;27404;52.398;9.646;2023-03-12T09:29:08;3.57;;;1.83;;
8159;SDS011;27404;52.398;9.646;2023-03-12T09:31:33;3.47;;;2.20;;
8159;SDS011;27404;52.398;9.646;2023-03-12T09:34:00;6.00;;;1.77;;
8159;SDS011;27404;52.398;9.646;2023-03-12T09:36:26;2.77;;;1.57;;
8159;SDS011;27404;52.398;9.646;2023-03-12T09:38:52;5.33;;;2.10;;
8159;SDS011;27404;52.398;9.646;2023-03-12T09:41:19;4.53;;;2.13;;
8159;SDS011;27404;52.398;9.646;2023-03-12T09:43:49;6.60;;;2.13;;
8159;SDS011;27404;52.398;9.646;2023-03-12T09:46:27;5.97;;;2.20;;
8159;SDS011;27404;52.398;9.646;2023-03-12T09:49:00;3.53;;;2.00;;
8159;SDS011;27404;52.398;9.646;2023-03-12T09:51:33;4.77;;;2.03;;
8159;SDS011;27404;52.398;9.646;2023-03-12T09:54:02;6.80;;;2.10;;
8159;SDS011;27404;52.398;9.646;2023-03-12T09:56:31;5.97;;;2.17;;
8159;SDS011;27404;52.398;9.646;2023-03-12T09:58:57;6.00;;;1.70;;
8159;SDS011;27404;52.398;9.646;2023-03-12T10:04:19;4.60;;;1.80;;
8159;SDS011;27404;52.398;9.646;2023-03-12T10:07:01;5.13;;;1.87;;
8159;SDS011;27404;52.398;9.646;2023-03-12T10:12:33;7.33;;;1.77;;
8159;SDS011;27404;52.398;9.646;2023-03-12T10:20:34;6.03;;;2.97;;
8159;SDS011;27404;52.398;9.646;2023-03-12T10:23:15;5.07;;;2.23;;
8159;SDS011;27404;52.398;9.646;2023-03-12T10:26:08;4.47;;;2.30;;
8159;SDS011;27404;52.398;9.646;2023-03-12T10:31:29;5.47;;;2.63;;
8159;SDS011;27404;52.398;9.646;2023-03-12T10:33:59;7.10;;;2.10;;
8159;SDS011;27404;52.398;9.646;2023-03-12T10:38:57;4.33;;;2.20;;
8159;SDS011;27404;52.398;9.646;2023-03-12T10:41:24;2.20;;;1.70;;
8159;SDS011;27404;52.398;9.646;2023-03-12T10:43:53;6.73;;;2.03;;
8159;SDS011;27404;52.398;9.646;2023-03-12T10:51:57;6.03;;;1.90;;
8159;SDS011;27404;52.398;9.646;2023-03-12T10:56:58;4.37;;;2.17;;
8159;SDS011;27404;52.398;9.646;2023-03-12T10:59:26;9.33;;;2.27;;
8159;SDS011;27404;52.398;9.646;2023-03-12T11:01:53;7.20;;;2.10;;
8159;SDS011;27404;52.398;9.646;2023-03-12T11:04:24;4.33;;;1.80;;
8159;SDS011;27404;52.398;9.646;2023-03-12T11:07:02;4.97;;;1.80;;
8159;SDS011;27404;52.398;9.646;2023-03-12T11:09:30;4.13;;;1.80;;
8159;SDS011;27404;52.398;9.646;2023-03-12T11:11:56;4.27;;;2.50;;
8159;SDS011;27404;52.398;9.646;2023-03-12T11:14:23;6.57;;;1.93;;
8159;SDS011;27404;52.398;9.646;2023-03-12T11:16:50;4.00;;;1.70;;
8159;SDS011;27404;52.398;9.646;2023-03-12T11:22:00;4.13;;;1.93;;
8159;SDS011;27404;52.398;9.646;2023-03-12T11:24:27;4.40;;;1.93;;
8159;SDS011;27404;52.398;9.646;2023-03-12T11:29:27;3.87;;;1.97;;
8159;SDS011;27404;52.398;9.646;2023-03-12T11:34:20;4.93;;;2.10;;
8159;SDS011;27404;52.398;9.646;2023-03-12T11:36:54;5.30;;;3.07;;
8159;SDS011;27404;52.398;9.646;2023-03-12T11:45:14;5.10;;;2.60;;
8159;SDS011;27404;52.398;9.646;2023-03-12T11:48:04;5.33;;;2.40;;
8159;SDS011;27404;52.398;9.646;2023-03-12T11:56:48;6.87;;;2.90;;
8159;SDS011;27404;52.398;9.646;2023-03-12T12:02:12;7.03;;;2.90;;
8159;SDS011;27404;52.398;9.646;2023-03-12T12:08:07;5.90;;;2.47;;
8159;SDS011;27404;52.398;9.646;2023-03-12T12:10:26;5.10;;;2.27;;
8159;SDS011;27404;52.398;9.646;2023-03-12T12:13:16;5.83;;;2.50;;
8159;SDS011;27404;52.398;9.646;2023-03-12T12:18:49;6.77;;;3.10;;
8159;SDS011;27404;52.398;9.646;2023-03-12T12:29:55;5.23;;;2.90;;
8159;SDS011;27404;52.398;9.646;2023-03-12T12:32:29;7.07;;;3.57;;
8159;SDS011;27404;52.398;9.646;2023-03-12T12:40:54;5.53;;;3.13;;
8159;SDS011;27404;52.398;9.646;2023-03-12T12:46:01;6.97;;;3.87;;
8159;SDS011;27404;52.398;9.646;2023-03-12T12:51:03;6.33;;;3.03;;
8159;SDS011;27404;52.398;9.646;2023-03-12T12:56:33;7.03;;;3.23;;
8159;SDS011;27404;52.398;9.646;2023-03-12T13:01:49;5.60;;;3.47;;
8159;SDS011;27404;52.398;9.646;2023-03-12T13:04:29;9.10;;;3.67;;
8159;SDS011;27404;52.398;9.646;2023-03-12T13:12:14;10.23;;;3.90;;
8159;SDS011;27404;52.398;9.646;2023-03-12T13:14:46;8.10;;;3.67;;
8159;SDS011;27404;52.398;9.646;2023-03-12T13:17:20;7.70;;;3.93;;
8159;SDS011;27404;52.398;9.646;2023-03-12T13:19:52;6.93;;;4.07;;
8159;SDS011;27404;52.398;9.646;2023-03-12T13:31:32;7.60;;;3.53;;
8159;SDS011;27404;52.398;9.646;2023-03-12T13:33:48;7.40;;;3.80;;
8159;SDS011;27404;52.398;9.646;2023-03-12T13:38:59;5.37;;;3.63;;
8159;SDS011;27404;52.398;9.646;2023-03-12T13:41:32;5.47;;;3.40;;
8159;SDS011;27404;52.398;9.646;2023-03-12T13:46:58;5.00;;;3.47;;
8159;SDS011;27404;52.398;9.646;2023-03-12T13:49:26;4.23;;;3.60;;
8159;SDS011;27404;52.398;9.646;2023-03-12T13:52:00;5.30;;;3.27;;
8159;SDS011;27404;52.398;9.646;2023-03-12T13:54:33;7.43;;;3.80;;
8159;SDS011;27404;52.398;9.646;2023-03-12T13:57:09;7.03;;;3.67;;
8159;SDS011;27404;52.398;9.646;2023-03-12T13:59:41;4.70;;;3.80;;
8159;SDS011;27404;52.398;9.646;2023-03-12T14:02:20;4.80;;;3.20;;
8159;SDS011;27404;52.398;9.646;2023-03-12T14:04:49;6.77;;;3.97;;
8159;SDS011;27404;52.398;9.646;2023-03-12T14:07:28;5.47;;;3.87;;
8159;SDS011;27404;52.398;9.646;2023-03-12T14:18:21;6.33;;;4.00;;
8159;SDS011;27404;52.398;9.646;2023-03-12T14:20:57;4.47;;;3.97;;
8159;SDS011;27404;52.398;9.646;2023-03-12T14:23:26;6.03;;;3.80;;
8159;SDS011;27404;52.398;9.646;2023-03-12T14:25:59;4.70;;;3.63;;
8159;SDS011;27404;52.398;9.646;2023-03-12T14:28:26;5.77;;;3.97;;
8159;SDS011;27404;52.398;9.646;2023-03-12T14:30:58;4.23;;;3.63;;
8159;SDS011;27404;52.398;9.646;2023-03-12T14:33:29;6.13;;;4.30;;
8159;SDS011;27404;52.398;9.646;2023-03-12T14:36:04;6.13;;;3.97;;
8159;SDS011;27404;52.398;9.646;2023-03-12T14:38:36;5.33;;;3.70;;
8159;SDS011;27404;52.398;9.646;2023-03-12T14:43:43;5.27;;;3.67;;
8159;SDS011;27404;52.398;9.646;2023-03-12T14:46:17;5.20;;;3.80;;
8159;SDS011;27404;52.398;9.646;2023-03-12T14:48:48;4.10;;;3.70;;
8159;SDS011;27404;52.398;9.646;2023-03-12T14:51:22;4.47;;;3.80;;
8159;SDS011;27404;52.398;9.646;2023-03-12T14:53:49;4.70;;;3.63;;
8159;SDS011;27404;52.398;9.646;2023-03-12T14:56:28;4.50;;;3.73;;
8159;SDS011;27404;52.398;9.646;2023-03-12T14:58:57;3.50;;;3.20;;
8159;SDS011;27404;52.398;9.646;2023-03-12T15:01:28;4.53;;;3.33;;
8159;SDS011;27404;52.398;9.646;2023-03-12T15:03:57;6.20;;;3.90;;
8159;SDS011;27404;52.398;9.646;2023-03-12T15:06:29;3.67;;;2.97;;
8159;SDS011;27404;52.398;9.646;2023-03-12T15:08:56;6.93;;;3.17;;
8159;SDS011;27404;52.398;9.646;2023-03-12T15:11:26;3.90;;;3.07;;
8159;SDS011;27404;52.398;9.646;2023-03-12T15:13:53;3.30;;;3.00;;
8159;SDS011;27404;52.398;9.646;2023-03-12T15:16:21;3.83;;;3.00;;
8159;SDS011;27404;52.398;9.646;2023-03-12T15:18:48;3.70;;;3.20;;
8159;SDS011;27404;52.398;9.646;2023-03-12T15:21:14;4.30;;;3.60;;
8159;SDS011;27404;52.398;9.646;2023-03-12T15:23:41;5.50;;;3.70;;
8159;SDS011;27404;52.398;9.646;2023-03-12T15:26:14;6.27;;;4.40;;
8159;SDS011;27404;52.398;9.646;2023-03-12T15:31:42;4.77;;;3.77;;
8159;SDS011;27404;52.398;9.646;2023-03-12T15:34:13;5.10;;;3.57;;
8159;SDS011;27404;52.398;9.646;2023-03-12T15:36:50;5.50;;;4.60;;
8159;SDS011;27404;52.398;9.646;2023-03-12T15:39:24;5.90;;;4.47;;
8159;SDS011;27404;52.398;9.646;2023-03-12T15:41:59;5.73;;;4.60;;
8159;SDS011;27404;52.398;9.646;2023-03-12T15:44:42;6.33;;;4.87;;
8159;SDS011;27404;52.398;9.646;2023-03-12T15:47:10;5.50;;;4.53;;
8159;SDS011;27404;52.398;9.646;2023-03-12T15:49:41;9.13;;;5.57;;
8159;SDS011;27404;52.398;9.646;2023-03-12T15:54:42;8.97;;;5.57;;
8159;SDS011;27404;52.398;9.646;2023-03-12T15:57:16;9.33;;;5.93;;
8159;SDS011;27404;52.398;9.646;2023-03-12T15:59:48;8.33;;;5.83;;
8159;SDS011;27404;52.398;9.646;2023-03-12T16:02:34;10.37;;;6.40;;
8159;SDS011;27404;52.398;9.646;2023-03-12T16:05:02;11.47;;;6.93;;
8159;SDS011;27404;52.398;9.646;2023-03-12T16:07:28;9.87;;;6.93;;
8159;SDS011;27404;52.398;9.646;2023-03-12T16:09:53;12.67;;;8.07;;
8159;SDS011;27404;52.398;9.646;2023-03-12T16:12:19;9.67;;;7.60;;
8159;SDS011;27404;52.398;9.646;2023-03-12T16:14:45;10.30;;;7.20;;
8159;SDS011;27404;52.398;9.646;2023-03-12T16:17:13;13.27;;;8.87;;
8159;SDS011;27404;52.398;9.646;2023-03-12T16:19:43;11.63;;;8.27;;
8159;SDS011;27404;52.398;9.646;2023-03-12T16:22:08;14.03;;;9.00;;
8159;SDS011;27404;52.398;9.646;2023-03-12T16:24:34;15.23;;;8.47;;
8159;SDS011;27404;52.398;9.646;2023-03-12T16:26:59;14.63;;;8.50;;
8159;SDS011;27404;52.398;9.646;2023-03-12T16:29:32;14.30;;;8.97;;
8159;SDS011;27404;52.398;9.646;2023-03-12T16:31:59;14.83;;;9.33;;
8159;SDS011;27404;52.398;9.646;2023-03-12T16:34:26;15.50;;;9.53;;
8159;SDS011;27404;52.398;9.646;2023-03-12T16:36:52;16.27;;;10.00;;
8159;SDS011;27404;52.398;9.646;2023-03-12T16:39:17;15.47;;;9.30;;
8159;SDS011;27404;52.398;9.646;2023-03-12T16:41:43;15.83;;;10.03;;
8159;SDS011;27404;52.398;9.646;2023-03-12T16:44:13;14.87;;;8.93;;
8159;SDS011;27404;52.398;9.646;2023-03-12T16:46:44;13.60;;;9.00;;
8159;SDS011;27404;52.398;9.646;2023-03-12T16:49:14;14.03;;;8.57;;
8159;SDS011;27404;52.398;9.646;2023-03-12T16:51:40;16.03;;;9.67;;
8159;SDS011;27404;52.398;9.646;2023-03-12T16:54:06;14.63;;;9.03;;
8159;SDS011;27404;52.398;9.646;2023-03-12T16:56:32;14.30;;;8.97;;
8159;SDS011;27404;52.398;9.646;2023-03-12T16:59:01;14.13;;;9.00;;
8159;SDS011;27404;52.398;9.646;2023-03-12T17:01:29;13.20;;;7.83;;
8159;SDS011;27404;52.398;9.646;2023-03-12T17:03:55;12.97;;;8.70;;
8159;SDS011;27404;52.398;9.646;2023-03-12T17:06:22;12.57;;;7.93;;